Time;durP1;ratioP1;P1;durP2;ratioP2;P2;SDS_P1;SDS_P2;PMS_P1;PMS_P2;Temp;Humidity;BMP_temperature;BMP_pressure;BME280_temperature;BME280_humidity;BME280_pressure;Samples;Min_cycle;Max_cycle;Signal;HPM_P1;HPM_P2
2021/11/15 00:01:43;;;;;;;74.10;36.20;;;;;;;4.13;80.68;101207.08;1359103;97;22422;-87
2021/11/15 00:04:07;;;;;;;68.83;38.33;;;;;;;4.09;80.28;101204.73;1360039;97;22342;-90
2021/11/15 00:06:34;;;;;;;60.83;33.90;;;;;;;3.98;79.83;101203.55;1356244;96;21593;-90
2021/11/15 00:09:02;;;;;;;70.70;34.47;;;;;;;3.99;79.91;101220.95;1358777;97;22327;-90
2021/11/15 00:11:30;;;;;;;64.97;35.77;;;;;;;3.94;79.69;101215.14;1358515;97;22147;-92
2021/11/15 00:13:57;;;;;;;65.40;33.93;;;;;;;3.94;79.69;101215.14;1382680;94;22168;-90
2021/11/15 00:16:24;;;;;;;60.30;34.13;;;;;;;3.92;79.82;101219.61;1380645;95;22153;-91
2021/11/15 00:18:52;;;;;;;66.10;34.67;;;;;;;3.86;79.68;101218.66;1377773;95;23108;-91
2021/11/15 00:21:19;;;;;;;65.47;35.40;;;;;;;3.84;79.59;101219.19;1366819;95;22265;-90
2021/11/15 00:23:46;;;;;;;64.07;33.37;;;;;;;3.85;79.65;101227.41;1381107;95;22022;-92
2021/11/15 00:26:14;;;;;;;64.07;35.20;;;;;;;3.85;79.65;101227.41;1380863;95;21941;-92
2021/11/15 00:28:41;;;;;;;63.13;35.70;;;;;;;3.76;79.87;101220.08;1372915;94;22147;-93
2021/11/15 00:31:09;;;;;;;67.20;36.07;;;;;;;3.77;79.83;101226.98;1382922;95;22295;-93
2021/11/15 00:33:37;;;;;;;65.30;36.00;;;;;;;3.74;79.83;101229.78;1383236;94;22198;-92
2021/11/15 00:36:05;;;;;;;68.60;36.17;;;;;;;3.74;79.83;101229.78;1379274;94;22874;-92
2021/11/15 00:38:32;;;;;;;70.93;35.57;;;;;;;3.73;79.94;101235.48;1382600;95;22896;-94
2021/11/15 00:40:59;;;;;;;74.43;36.57;;;;;;;3.69;79.72;101227.90;1377699;94;22156;-92
2021/11/15 00:43:26;;;;;;;74.03;37.00;;;;;;;3.67;79.97;101229.28;1380744;94;22225;-90
2021/11/15 00:45:54;;;;;;;70.30;39.07;;;;;;;3.67;79.97;101229.28;1385728;94;22101;-91
2021/11/15 00:48:22;;;;;;;61.70;34.33;;;;;;;3.61;80.67;101225.22;1390016;92;22392;-90
2021/11/15 00:50:50;;;;;;;63.40;34.20;;;;;;;3.61;80.67;101225.22;1415746;92;22819;-90
2021/11/15 00:53:17;;;;;;;64.53;33.77;;;;;;;3.73;84.55;101237.27;1407616;92;22218;-91
2021/11/15 00:55:44;;;;;;;61.70;31.73;;;;;;;3.71;86.31;101228.20;1405096;92;22835;-92
2021/11/15 00:58:11;;;;;;;64.87;34.93;;;;;;;3.71;86.31;101228.20;1410473;92;22217;-91
2021/11/15 01:00:41;;;;;;;69.00;35.63;;;;;;;3.78;86.46;101233.47;1408143;92;23210;-91
2021/11/15 01:03:12;;;;;;;63.37;34.17;;;;;;;3.91;84.91;101243.25;1411392;92;22220;-92
2021/11/15 01:05:47;;;;;;;60.40;32.90;;;;;;;3.91;84.91;101243.25;1409636;92;22158;-92
2021/11/15 01:08:11;;;;;;;68.67;35.87;;;;;;;3.94;86.25;101249.20;1411305;92;21620;-92
2021/11/15 01:10:38;;;;;;;66.07;34.33;;;;;;;4.00;85.75;101251.47;1414207;92;22229;-91
2021/11/15 01:13:05;;;;;;;64.57;32.67;;;;;;;4.04;85.08;101241.66;1409431;92;22248;-90
2021/11/15 01:15:34;;;;;;;73.90;35.77;;;;;;;4.03;86.00;101239.98;1412434;92;23892;-90
2021/11/15 01:18:02;;;;;;;70.63;36.67;;;;;;;4.07;85.69;101241.48;1392397;92;22245;-90
2021/11/15 01:20:32;;;;;;;69.90;34.57;;;;;;;4.08;85.99;101241.85;1415052;92;22162;-89
2021/11/15 01:23:00;;;;;;;62.40;30.30;;;;;;;4.07;86.10;101242.32;1412822;92;22219;-90
2021/11/15 01:25:27;;;;;;;73.67;35.23;;;;;;;4.05;85.98;101240.24;1414600;92;23057;-90
2021/11/15 01:27:56;;;;;;;63.80;34.40;;;;;;;4.04;86.52;101249.05;1412498;92;22530;-90
2021/11/15 01:30:24;;;;;;;60.37;33.27;;;;;;;4.04;86.57;101245.11;1404975;92;22154;-90
2021/11/15 01:32:53;;;;;;;66.40;34.17;;;;;;;4.04;86.89;101250.36;1409959;92;22162;-90
2021/11/15 01:35:23;;;;;;;65.27;34.60;;;;;;;4.05;86.91;101250.72;1403919;92;22174;-90
2021/11/15 01:37:51;;;;;;;73.53;37.70;;;;;;;4.05;86.84;101255.13;1421790;92;22167;-90
2021/11/15 01:40:22;;;;;;;64.73;33.80;;;;;;;4.03;86.91;101249.98;1423591;92;22202;-90
2021/11/15 01:42:52;;;;;;;71.03;37.20;;;;;;;4.03;86.97;101249.98;1416933;92;23210;-90
2021/11/15 01:45:23;;;;;;;69.97;34.20;;;;;;;4.02;86.90;101248.27;1403561;92;22177;-90
2021/11/15 01:47:55;;;;;;;64.63;35.23;;;;;;;4.10;86.78;101258.34;1414715;92;22818;-89
2021/11/15 01:50:23;;;;;;;80.77;36.58;;;;;;;4.11;86.90;101256.09;1389968;92;22440;-89
2021/11/15 01:52:53;;;;;;;76.87;34.40;;;;;;;4.12;86.60;101260.89;1379807;93;21371;-88
2021/11/15 01:55:22;;;;;;;71.43;36.70;;;;;;;4.11;86.59;101256.09;1388818;93;22107;-89
2021/11/15 01:57:51;;;;;;;78.80;36.97;;;;;;;4.11;87.01;101250.84;1391479;94;22153;-88
2021/11/15 02:00:36;;;;;;;73.63;36.57;;;;;;;4.06;87.17;101242.42;1374388;94;22175;-88
2021/11/15 02:03:04;;;;;;;79.57;37.07;;;;;;;4.06;87.06;101243.27;1380389;94;22190;-88
2021/11/15 02:05:31;;;;;;;66.57;35.60;;;;;;;4.15;87.15;101261.55;1388836;93;22114;-88
2021/11/15 02:07:59;;;;;;;73.73;36.43;;;;;;;4.12;87.35;101262.20;1380156;94;22218;-91
2021/11/15 02:10:27;;;;;;;78.43;37.40;;;;;;;4.12;87.27;101262.20;1392892;94;22227;-88
2021/11/15 02:12:59;;;;;;;67.43;34.87;;;;;;;4.11;87.49;101256.55;1392330;93;22174;-89
2021/11/15 02:15:27;;;;;;;73.47;35.67;;;;;;;4.05;86.86;101261.20;1389859;92;23362;-89
2021/11/15 02:17:56;;;;;;;77.57;37.63;;;;;;;4.05;86.86;101261.20;1385670;93;22375;-94
2021/11/15 02:20:28;;;;;;;78.27;38.60;;;;;;;4.10;86.88;101271.44;1372419;94;22167;-95
2021/11/15 02:22:56;;;;;;;72.90;36.47;;;;;;;4.09;87.13;101267.61;1376846;94;22205;-95
2021/11/15 02:25:26;;;;;;;69.17;34.63;;;;;;;4.07;87.03;101265.90;1377030;94;22110;-94
2021/11/15 02:27:54;;;;;;;70.62;36.40;;;;;;;4.07;87.03;101265.90;1396127;93;23278;-95
2021/11/15 02:30:26;;;;;;;67.23;36.53;;;;;;;4.05;87.07;101266.44;1393268;94;23610;-95
2021/11/15 02:32:54;;;;;;;76.40;37.17;;;;;;;4.02;87.30;101264.47;1389895;94;22144;-92
2021/11/15 02:35:24;;;;;;;82.73;38.83;;;;;;;4.01;87.06;101262.31;1385395;94;22175;-93
2021/11/15 02:37:51;;;;;;;72.13;37.07;;;;;;;3.90;87.00;101246.34;1384747;93;22284;-91
2021/11/15 02:40:22;;;;;;;67.70;34.63;;;;;;;3.93;87.10;101264.50;1386787;94;23101;-92
2021/11/15 02:42:50;;;;;;;70.25;36.60;;;;;;;3.89;87.57;101273.48;1370453;94;22283;-91
2021/11/15 02:45:21;;;;;;;75.77;40.17;;;;;;;3.85;87.54;101269.31;1363095;95;21431;-92
2021/11/15 02:47:49;;;;;;;74.92;38.00;;;;;;;3.85;86.96;101275.86;1380450;95;22175;-92
2021/11/15 02:50:20;;;;;;;73.80;38.37;;;;;;;3.86;86.56;101278.88;1384366;93;21610;-92
2021/11/15 02:52:52;;;;;;;77.20;37.40;;;;;;;3.83;86.55;101277.27;1378677;93;23071;-92
2021/11/15 02:55:22;;;;;;;71.83;39.77;;;;;;;3.79;86.35;101284.59;1397024;93;21992;-92
2021/11/15 02:57:50;;;;;;;73.70;40.67;;;;;;;3.86;86.25;101284.59;1378141;93;22126;-92
2021/11/15 03:00:25;;;;;;;73.53;39.23;;;;;;;3.84;86.24;101289.89;1403157;93;22170;-91
2021/11/15 03:02:54;;;;;;;70.33;36.93;;;;;;;3.84;86.24;101289.89;1399823;93;22155;-92
2021/11/15 03:05:29;;;;;;;80.77;38.77;;;;;;;3.79;86.97;101288.83;1381048;93;23079;-90
2021/11/15 03:07:59;;;;;;;67.10;35.83;;;;;;;3.78;86.90;101288.92;1395725;93;23291;-89
2021/11/15 03:10:27;;;;;;;73.10;39.53;;;;;;;3.78;86.90;101288.92;1405287;93;22100;-90
2021/11/15 03:12:56;;;;;;;71.40;37.70;;;;;;;3.73;87.26;101294.39;1409964;93;22169;-90
2021/11/15 03:15:29;;;;;;;73.07;37.60;;;;;;;3.64;87.53;101281.80;1388272;93;22358;-89
2021/11/15 03:18:07;;;;;;;77.57;41.03;;;;;;;3.66;87.45;101296.98;1397649;93;23116;-94
2021/11/15 03:20:42;;;;;;;68.00;36.07;;;;;;;3.67;87.04;101297.81;1397688;93;21905;-91
2021/11/15 03:23:14;;;;;;;74.13;39.67;;;;;;;3.66;86.74;101299.59;1404193;93;22201;-92
2021/11/15 03:25:43;;;;;;;82.20;40.53;;;;;;;3.59;86.38;101288.58;1394872;93;22927;-91
2021/11/15 03:28:16;;;;;;;81.57;40.73;;;;;;;3.66;86.33;101303.98;1395632;93;21934;-90
2021/11/15 03:30:44;;;;;;;77.43;36.93;;;;;;;3.60;87.31;101304.69;1389666;93;22260;-91
2021/11/15 03:33:14;;;;;;;69.83;37.70;;;;;;;3.56;88.32;101302.30;1403487;93;22239;-91
2021/11/15 03:35:41;;;;;;;78.37;38.83;;;;;;;3.56;88.32;101302.30;1407836;93;22017;-92
2021/11/15 03:38:10;;;;;;;76.80;38.10;;;;;;;3.44;88.56;101299.88;1399988;93;22093;-90
2021/11/15 03:40:38;;;;;;;74.30;36.20;;;;;;;3.44;88.56;101299.88;1398268;93;22241;-89
2021/11/15 03:43:07;;;;;;;72.33;38.73;;;;;;;3.35;88.83;101298.58;1404325;93;23101;-91
2021/11/15 03:45:37;;;;;;;72.90;38.90;;;;;;;3.35;87.79;101307.73;1396127;93;21940;-88
2021/11/15 03:48:06;;;;;;;73.67;37.33;;;;;;;3.34;87.78;101306.53;1406159;93;23153;-89
2021/11/15 03:50:35;;;;;;;74.83;37.97;;;;;;;3.30;87.27;101292.73;1401904;93;21997;-89
2021/11/15 03:53:06;;;;;;;76.93;39.10;;;;;;;3.30;87.27;101292.73;1399072;93;21938;-88
2021/11/15 03:55:34;;;;;;;76.20;40.57;;;;;;;3.36;87.36;101304.66;1409019;93;22928;-88
2021/11/15 03:58:02;;;;;;;79.47;41.20;;;;;;;3.36;87.66;101303.34;1402053;93;22826;-88
2021/11/15 04:00:34;;;;;;;83.70;40.03;;;;;;;3.34;88.45;101305.22;1399749;93;22031;-89
2021/11/15 04:03:04;;;;;;;86.30;44.07;;;;;;;3.26;88.15;101300.38;1396809;93;21914;-89
2021/11/15 04:05:37;;;;;;;87.50;43.08;;;;;;;3.26;88.15;101300.38;1414789;93;21735;-89
2021/11/15 04:08:07;;;;;;;93.53;45.17;;;;;;;3.30;88.52;101306.28;1418201;93;22511;-89
2021/11/15 04:10:43;;;;;;;82.97;41.87;;;;;;;3.27;88.93;101309.06;1396209;93;22812;-88
2021/11/15 04:13:25;;;;;;;78.47;41.23;;;;;;;3.24;88.80;101310.06;1386777;93;22004;-89
2021/11/15 04:15:55;;;;;;;;;;;;;;;3.24;88.80;101310.06;1412077;93;21931;-87
2021/11/15 04:18:27;;;;;;;94.97;42.13;;;;;;;3.26;88.70;101314.77;1401535;93;20827;-87
2021/11/15 04:20:56;;;;;;;85.80;40.23;;;;;;;3.26;88.70;101314.77;1395935;93;22153;-86
2021/11/15 04:23:23;;;;;;;81.70;42.83;;;;;;;3.27;88.63;101320.84;1394032;93;22053;-86
2021/11/15 04:25:50;;;;;;;83.63;43.50;;;;;;;3.25;88.95;101320.06;1394966;93;22835;-85
2021/11/15 04:28:18;;;;;;;85.27;44.37;;;;;;;3.31;88.16;101317.12;1396524;93;22894;-86
2021/11/15 04:30:45;;;;;;;74.90;38.83;;;;;;;3.31;88.16;101317.12;1395326;93;21966;-87
2021/11/15 04:33:14;;;;;;;84.40;40.57;;;;;;;3.32;88.32;101325.37;1404269;93;22001;-88
2021/11/15 04:35:42;;;;;;;81.03;40.77;;;;;;;3.31;88.45;101322.36;1405859;93;22951;-86
2021/11/15 04:38:09;;;;;;;96.73;42.57;;;;;;;3.31;88.45;101322.36;1399041;92;21800;-86
2021/11/15 04:40:37;;;;;;;82.30;44.07;;;;;;;3.34;88.60;101324.84;1413217;92;22046;-86
2021/11/15 04:43:05;;;;;;;80.07;41.23;;;;;;;3.35;88.20;101322.60;1409581;92;22105;-87
2021/11/15 04:45:32;;;;;;;75.97;41.50;;;;;;;3.36;87.59;101326.90;1416377;92;21949;-87
2021/11/15 04:48:00;;;;;;;79.83;40.47;;;;;;;3.36;87.59;101326.90;1410550;93;22257;-87
2021/11/15 04:50:28;;;;;;;87.17;41.27;;;;;;;3.32;87.94;101324.07;1410436;92;22104;-87
2021/11/15 04:52:57;;;;;;;81.13;40.43;;;;;;;3.32;87.94;101324.07;1409576;93;21856;-88
2021/11/15 04:55:25;;;;;;;82.10;42.03;;;;;;;3.29;88.30;101322.92;1378329;93;21920;-90
2021/11/15 04:57:54;;;;;;;76.87;38.57;;;;;;;3.26;87.93;101314.77;1407084;93;21976;-89
2021/11/15 05:00:27;;;;;;;75.20;37.60;;;;;;;3.26;87.93;101314.77;1417365;92;21997;-89
2021/11/15 05:02:54;;;;;;;76.97;40.23;;;;;;;3.27;87.97;101312.98;1411011;91;23060;-90
2021/11/15 05:05:22;;;;;;;72.17;38.03;;;;;;;3.27;87.75;101316.45;1398813;93;22047;-89
2021/11/15 05:07:54;;;;;;;77.57;41.87;;;;;;;3.27;87.75;101316.45;1403319;93;21851;-90
2021/11/15 05:10:24;;;;;;;85.90;42.00;;;;;;;3.28;88.35;101317.28;1409495;92;22046;-89
2021/11/15 05:12:54;;;;;;;80.23;41.73;;;;;;;3.22;88.34;101312.38;1405824;93;21933;-89
2021/11/15 05:15:21;;;;;;;76.87;41.23;;;;;;;3.27;88.34;101319.53;1403997;92;23335;-90
2021/11/15 05:17:50;;;;;;;83.13;41.90;;;;;;;3.29;87.70;101324.23;1395932;93;22889;-90
2021/11/15 05:20:20;;;;;;;75.23;42.00;;;;;;;3.29;87.70;101324.23;1414538;93;21916;-89
2021/11/15 05:22:48;;;;;;;73.97;38.83;;;;;;;3.28;87.68;101327.31;1406056;93;21861;-89
2021/11/15 05:25:16;;;;;;;73.57;39.37;;;;;;;3.25;87.04;101330.09;1406002;92;21953;-93
2021/11/15 05:27:44;;;;;;;80.43;40.40;;;;;;;3.25;87.04;101330.09;1403749;92;21782;-93
2021/11/15 05:30:14;;;;;;;78.13;40.53;;;;;;;3.28;87.08;101332.98;1400963;92;21708;-93
2021/11/15 05:32:42;;;;;;;78.97;40.30;;;;;;;3.27;87.17;101336.53;1384710;93;22679;-93
2021/11/15 05:35:10;;;;;;;76.00;39.47;;;;;;;3.25;86.99;101343.61;1406856;93;22485;-92
2021/11/15 05:37:37;;;;;;;83.10;44.40;;;;;;;3.24;87.02;101348.47;1406542;93;22666;-89
2021/11/15 05:40:07;;;;;;;83.30;41.97;;;;;;;3.24;86.89;101361.08;1412319;93;21815;-88
2021/11/15 05:42:35;;;;;;;84.97;44.70;;;;;;;3.24;86.89;101361.08;1404377;93;21773;-92
2021/11/15 05:45:05;;;;;;;74.93;43.27;;;;;;;3.22;86.65;101362.92;1412549;93;21787;-91
2021/11/15 05:47:33;;;;;;;85.28;41.50;;;;;;;3.20;86.59;101362.64;1412661;93;21901;-91
2021/11/15 05:50:00;;;;;;;79.67;41.37;;;;;;;3.16;87.08;101366.72;1391280;92;21400;-91
2021/11/15 05:52:28;;;;;;;75.87;40.23;;;;;;;3.14;86.80;101370.33;1411171;92;21738;-89
2021/11/15 05:54:57;;;;;;;79.30;41.27;;;;;;;3.20;87.20;101375.72;1410928;92;21858;-88
2021/11/15 05:57:25;;;;;;;77.47;40.53;;;;;;;3.20;87.20;101375.72;1406057;93;22012;-90
2021/11/15 05:59:52;;;;;;;77.80;40.93;;;;;;;3.23;87.01;101377.72;1391946;93;21922;-90
2021/11/15 06:02:19;;;;;;;83.73;42.47;;;;;;;3.21;86.87;101373.48;1398069;93;21913;-96
2021/11/15 06:04:46;;;;;;;73.87;38.67;;;;;;;3.21;86.87;101373.48;1412136;93;21845;-96
2021/11/15 06:07:13;;;;;;;83.00;44.60;;;;;;;3.25;86.85;101381.11;1418115;91;22131;-92
2021/11/15 06:09:41;;;;;;;86.10;45.47;;;;;;;3.27;86.72;101388.86;1412323;92;21747;-92
2021/11/15 06:12:09;;;;;;;74.63;40.33;;;;;;;3.28;87.59;101393.16;1422107;91;22677;-92
2021/11/15 06:14:36;;;;;;;78.73;41.03;;;;;;;3.33;87.00;101404.25;1426183;91;21777;-92
2021/11/15 06:17:04;;;;;;;82.70;43.30;;;;;;;3.38;87.00;101403.09;1427143;91;21937;-87
2021/11/15 06:19:31;;;;;;;77.13;40.90;;;;;;;3.42;87.38;101401.16;1410754;91;22859;-87
2021/11/15 06:21:58;;;;;;;81.63;42.03;;;;;;;3.52;86.96;101404.17;1430776;91;22593;-87
2021/11/15 06:24:25;;;;;;;77.17;41.23;;;;;;;3.52;86.96;101404.17;1418744;91;22224;-87
2021/11/15 06:26:53;;;;;;;83.80;41.97;;;;;;;3.58;86.98;101407.31;1403982;92;22019;-86
2021/11/15 06:29:23;;;;;;;77.07;39.17;;;;;;;3.73;86.85;101415.31;1404998;92;22057;-87
2021/11/15 06:31:50;;;;;;;81.67;43.30;;;;;;;3.81;86.65;101417.07;1412521;92;23055;-86
2021/11/15 06:34:17;;;;;;;81.23;42.93;;;;;;;3.81;86.65;101417.07;1405331;92;22128;-86
2021/11/15 06:36:44;;;;;;;83.07;44.60;;;;;;;3.95;86.39;101423.74;1404265;92;22128;-86
2021/11/15 06:39:11;;;;;;;89.37;47.87;;;;;;;3.95;86.39;101423.74;1403338;92;21948;-87
2021/11/15 06:41:39;;;;;;;86.90;41.37;;;;;;;4.01;86.42;101423.88;1413809;92;22324;-87
2021/11/15 06:44:07;;;;;;;77.33;39.20;;;;;;;4.05;86.50;101418.85;1413785;92;22136;-86
2021/11/15 06:46:35;;;;;;;81.47;39.73;;;;;;;4.12;86.41;101424.16;1411929;92;23136;-87
2021/11/15 06:49:03;;;;;;;77.47;42.13;;;;;;;4.18;86.42;101425.61;1410712;92;22271;-86
2021/11/15 06:51:31;;;;;;;72.13;41.23;;;;;;;4.25;86.33;101430.89;1409082;92;22154;-87
2021/11/15 06:53:58;;;;;;;81.10;40.90;;;;;;;4.32;86.26;101434.89;1416722;92;22161;-86
2021/11/15 06:56:25;;;;;;;79.60;41.87;;;;;;;4.39;86.23;101438.02;1408489;92;23279;-87
2021/11/15 06:58:52;;;;;;;77.93;43.53;;;;;;;4.44;86.06;101438.15;1418176;92;22231;-86
2021/11/15 07:01:20;;;;;;;70.67;38.53;;;;;;;4.52;85.95;101447.76;1416031;92;21590;-83
2021/11/15 07:03:47;;;;;;;73.97;40.43;;;;;;;4.64;85.97;101449.33;1407662;92;22269;-82
2021/11/15 07:06:16;;;;;;;85.57;41.33;;;;;;;4.71;85.77;101446.73;1411672;92;22344;-83
2021/11/15 07:08:43;;;;;;;72.13;38.73;;;;;;;4.88;85.01;101446.64;1413349;92;21575;-83
2021/11/15 07:11:10;;;;;;;76.27;40.20;;;;;;;4.88;85.01;101446.64;1419953;92;22256;-83
2021/11/15 07:13:37;;;;;;;79.07;43.10;;;;;;;4.95;85.00;101444.53;1421288;92;21382;-83
2021/11/15 07:16:05;;;;;;;75.70;41.10;;;;;;;4.95;84.70;101437.50;1412244;92;21406;-83
2021/11/15 07:18:33;;;;;;;82.97;39.97;;;;;;;5.06;84.70;101441.28;1423174;92;22521;-82
2021/11/15 07:21:09;;;;;;;74.63;40.63;;;;;;;5.20;84.66;101441.34;1415471;92;22492;-83
2021/11/15 07:23:36;;;;;;;75.00;41.73;;;;;;;5.29;84.34;101440.80;1412111;92;21523;-82
2021/11/15 07:26:03;;;;;;;81.67;40.37;;;;;;;5.37;84.17;101437.27;1392250;92;21412;-81
2021/11/15 07:28:31;;;;;;;79.00;42.17;;;;;;;5.49;83.88;101445.37;1407016;92;22338;-83
2021/11/15 07:30:58;;;;;;;79.10;42.13;;;;;;;5.53;83.39;101446.90;1409265;92;22490;-82
2021/11/15 07:33:27;;;;;;;76.97;42.53;;;;;;;5.60;83.18;101450.84;1411855;92;21509;-82
2021/11/15 07:35:55;;;;;;;79.33;40.83;;;;;;;5.72;83.36;101459.77;1414199;92;21619;-82
2021/11/15 07:38:22;;;;;;;74.30;41.60;;;;;;;5.85;83.18;101466.84;1420234;92;21574;-83
2021/11/15 07:40:51;;;;;;;70.60;39.97;;;;;;;5.93;82.08;101470.77;1410111;92;21597;-82
2021/11/15 07:43:18;;;;;;;65.53;37.00;;;;;;;5.98;82.16;101466.96;1411195;92;21596;-82
2021/11/15 07:45:45;;;;;;;68.43;37.87;;;;;;;6.09;82.09;101465.84;1410206;92;21515;-82
2021/11/15 07:48:14;;;;;;;66.50;36.97;;;;;;;6.19;82.17;101465.31;1417057;92;21693;-83
2021/11/15 07:50:44;;;;;;;70.30;35.87;;;;;;;6.31;81.84;101473.27;1420852;92;21368;-83
2021/11/15 07:53:11;;;;;;;68.53;38.97;;;;;;;6.34;80.42;101465.67;1414080;92;22307;-84
2021/11/15 07:55:41;;;;;;;69.77;37.17;;;;;;;6.41;80.83;101467.44;1415590;92;22292;-84
2021/11/15 07:58:11;;;;;;;69.83;36.77;;;;;;;6.49;80.76;101475.70;1410272;92;22366;-84
2021/11/15 08:00:38;;;;;;;63.25;35.23;;;;;;;6.60;80.61;101474.56;1416084;92;21434;-84
2021/11/15 08:03:06;;;;;;;68.17;35.40;;;;;;;6.68;80.38;101477.56;1410304;92;21595;-85
2021/11/15 08:05:35;;;;;;;68.00;36.10;;;;;;;6.75;79.92;101474.90;1420359;92;21272;-84
2021/11/15 08:08:03;;;;;;;62.93;35.67;;;;;;;6.81;79.24;101482.04;1414664;92;21501;-85
2021/11/15 08:10:30;;;;;;;70.50;38.27;;;;;;;6.90;79.51;101480.13;1408676;92;21449;-84
2021/11/15 08:12:58;;;;;;;64.30;36.87;;;;;;;7.06;80.26;101475.58;1422528;92;21537;-84
2021/11/15 08:15:27;;;;;;;72.27;41.87;;;;;;;7.17;79.05;101480.99;1384318;94;21500;-83
2021/11/15 08:17:59;;;;;;;63.77;36.13;;;;;;;7.29;78.78;101483.77;1393430;92;21295;-84
2021/11/15 08:20:34;;;;;;;70.73;38.43;;;;;;;7.39;78.38;101484.39;1420478;93;21584;-84
2021/11/15 08:23:07;;;;;;;77.73;43.93;;;;;;;7.51;78.34;101485.37;1416382;92;21351;-84
2021/11/15 08:26:07;;;;;;;103.10;53.77;;;;;;;7.66;78.16;101490.08;1424023;92;21348;-83
2021/11/15 08:28:34;;;;;;;108.67;72.63;;;;;;;7.79;76.74;101491.41;1402101;92;21486;-84
2021/11/15 08:31:05;;;;;;;75.17;47.53;;;;;;;7.94;77.42;101493.02;1431648;92;22369;-84
2021/11/15 08:33:33;;;;;;;64.25;37.13;;;;;;;8.02;76.36;101492.00;1410893;92;21326;-84
2021/11/15 08:36:00;;;;;;;60.03;35.77;;;;;;;8.11;76.55;101487.88;1411052;92;21385;-84
2021/11/15 08:38:44;;;;;;;62.37;36.40;;;;;;;8.14;75.54;101485.91;1408369;91;21422;-84
2021/11/15 08:41:21;;;;;;;74.97;46.57;;;;;;;8.27;76.30;101489.00;1420434;92;21429;-84
2021/11/15 08:43:51;;;;;;;112.27;69.13;;;;;;;8.40;75.50;101491.19;1421041;92;21400;-82
2021/11/15 08:46:19;;;;;;;73.57;41.13;;;;;;;8.54;75.35;101492.36;1414080;92;21481;-81
2021/11/15 08:48:49;;;;;;;167.43;98.47;;;;;;;8.66;73.09;101484.52;1417292;91;21541;-82
2021/11/15 08:51:18;;;;;;;114.80;68.80;;;;;;;8.74;73.89;101478.22;1424240;92;21452;-82
2021/11/15 08:53:48;;;;;;;216.93;129.70;;;;;;;8.83;73.54;101475.40;1421632;92;21362;-82
2021/11/15 08:56:16;;;;;;;141.57;72.27;;;;;;;8.91;72.54;101479.17;1420400;92;21626;-83
2021/11/15 08:58:43;;;;;;;161.07;82.63;;;;;;;8.92;71.74;101476.92;1422723;92;21408;-82
2021/11/15 09:01:15;;;;;;;74.93;43.50;;;;;;;9.02;72.53;101477.92;1422321;92;21443;-85
2021/11/15 09:03:44;;;;;;;66.23;38.23;;;;;;;9.12;72.35;101479.42;1424945;92;21341;-85
2021/11/15 09:06:14;;;;;;;63.17;35.00;;;;;;;9.24;71.64;101473.72;1418449;92;22844;-82
2021/11/15 09:08:44;;;;;;;156.63;81.37;;;;;;;9.30;70.41;101479.86;1419216;91;21489;-82
2021/11/15 09:11:13;;;;;;;107.30;57.23;;;;;;;9.43;70.26;101476.66;1409378;93;21556;-82
2021/11/15 09:13:43;;;;;;;71.00;40.33;;;;;;;9.59;69.11;101475.52;1409346;92;21342;-82
2021/11/15 09:16:11;;;;;;;;;;;;;;;9.81;69.68;101480.87;1410435;93;21868;-83
2021/11/15 09:18:39;;;;;;;113.43;63.43;;;;;;;10.53;68.23;101483.23;1410139;92;20380;-83
2021/11/15 09:21:07;;;;;;;111.03;62.40;;;;;;;11.25;64.06;101474.77;1413717;92;21519;-82
2021/11/15 09:23:41;;;;;;;123.47;69.93;;;;;;;11.96;64.69;101464.39;1404751;92;21430;-83
2021/11/15 09:26:11;;;;;;;113.97;65.70;;;;;;;12.70;63.38;101465.12;1411387;93;21459;-83
2021/11/15 09:28:39;;;;;;;113.62;60.08;;;;;;;13.32;61.70;101466.59;1409963;93;21498;-83
2021/11/15 09:31:09;;;;;;;116.37;68.27;;;;;;;13.79;58.27;101463.22;1384326;93;21571;-83
2021/11/15 09:33:37;;;;;;;90.77;50.97;;;;;;;14.15;57.44;101473.03;1403016;93;21570;-83
2021/11/15 09:36:05;;;;;;;86.23;47.20;;;;;;;14.43;56.62;101468.59;1405396;92;22436;-83
2021/11/15 09:38:35;;;;;;;62.00;39.07;;;;;;;14.80;56.27;101461.06;1407373;92;21582;-83
2021/11/15 09:41:07;;;;;;;48.17;30.17;;;;;;;15.13;55.52;101464.05;1404933;93;21607;-83
2021/11/15 09:43:36;;;;;;;53.28;32.67;;;;;;;15.27;52.73;101455.52;1404738;92;21522;-83
2021/11/15 09:46:11;;;;;;;50.55;33.35;;;;;;;15.37;53.66;101455.95;1406584;92;22251;-83
2021/11/15 09:48:43;;;;;;;58.83;38.55;;;;;;;15.58;53.88;101457.27;1410693;92;21615;-83
2021/11/15 09:51:12;;;;;;;49.98;35.33;;;;;;;15.65;52.61;101458.84;1405306;92;21335;-86
2021/11/15 09:53:39;;;;;;;68.12;41.60;;;;;;;15.81;52.35;101451.97;1403355;92;22382;-86
2021/11/15 09:56:11;;;;;;;49.80;33.83;;;;;;;15.73;47.37;101446.89;1405124;92;21591;-87
2021/11/15 09:58:38;;;;;;;51.13;36.28;;;;;;;15.67;48.69;101451.50;1401732;93;21540;-87
2021/11/15 10:01:06;;;;;;;41.05;28.80;;;;;;;15.75;49.97;101444.09;1410272;92;21660;-86
2021/11/15 10:03:34;;;;;;;42.13;29.70;;;;;;;15.84;49.12;101447.64;1405011;93;21562;-86
2021/11/15 10:06:03;;;;;;;121.42;78.15;;;;;;;16.06;50.53;101448.95;1399690;92;21430;-86
2021/11/15 10:08:49;;;;;;;136.20;80.62;;;;;;;16.03;46.47;101446.10;1401593;91;21630;-92
2021/11/15 10:11:19;;;;;;;56.55;40.00;;;;;;;16.11;47.07;101447.48;1412226;92;21452;-88
2021/11/15 10:13:47;;;;;;;63.38;41.98;;;;;;;16.42;49.31;101449.61;1409979;92;22228;-88
2021/11/15 10:16:22;;;;;;;52.62;36.00;;;;;;;16.16;48.00;101449.16;1414390;91;21378;-88
2021/11/15 10:19:00;;;;;;;80.00;53.78;;;;;;;16.44;48.76;101442.28;1412141;92;22349;-88
2021/11/15 10:21:41;;;;;;;56.15;37.50;;;;;;;16.43;44.94;101445.96;1414590;92;21996;-88
2021/11/15 10:24:11;;;;;;;;;;;;;;;16.09;47.89;101441.45;1416109;92;21473;-87
2021/11/15 10:26:50;;;;;;;102.65;62.05;;;;;;;16.26;46.59;101442.38;1420996;92;20497;-87
2021/11/15 10:29:27;;;;;;;62.05;39.65;;;;;;;16.33;46.32;101438.55;1408670;92;21414;-86
2021/11/15 10:32:02;;;;;;;40.05;27.60;;;;;;;16.55;48.24;101435.30;1424753;92;22287;-86
2021/11/15 10:34:40;;;;;;;36.38;26.93;;;;;;;16.55;47.86;101427.80;1418865;92;21414;-86
2021/11/15 10:37:30;;;;;;;61.20;41.25;;;;;;;16.59;46.33;101428.62;1406137;92;22331;-88
2021/11/15 10:40:10;;;;;;;40.95;27.65;;;;;;;16.86;46.76;101426.70;1410346;92;21481;-88
2021/11/15 10:42:46;;;;;;;39.25;27.85;;;;;;;16.70;46.36;101419.47;1420125;90;21577;-88
2021/11/15 10:45:20;;;;;;;35.30;25.40;;;;;;;16.59;43.97;101423.78;1428514;91;21368;-85
2021/11/15 10:47:55;;;;;;;34.35;25.37;;;;;;;16.75;46.25;101418.48;1408680;91;21362;-86
2021/11/15 10:50:32;;;;;;;36.63;26.10;;;;;;;17.14;45.33;101414.70;1436288;91;21442;-85
2021/11/15 10:53:07;;;;;;;35.65;26.80;;;;;;;17.14;45.33;101414.70;1422887;91;22564;-87
2021/11/15 10:55:45;;;;;;;63.98;43.83;;;;;;;16.89;45.00;101413.87;1426215;90;22234;-86
2021/11/15 10:58:23;;;;;;;73.75;48.92;;;;;;;16.89;44.63;101411.70;1432888;90;21449;-87
2021/11/15 11:00:56;;;;;;;;;;;;;;;16.97;43.92;101402.33;1433210;91;21376;-85
2021/11/15 11:03:24;;;;;;;;;;;;;;;17.10;43.21;101408.03;1424313;91;20385;-84
2021/11/15 11:05:55;;;;;;;43.05;30.72;;;;;;;17.18;41.95;101405.88;1424240;90;20884;-88
2021/11/15 11:08:26;;;;;;;54.20;37.55;;;;;;;17.25;41.71;101406.03;1433149;90;22466;-87
2021/11/15 11:11:08;;;;;;;34.92;23.32;;;;;;;17.26;44.75;101409.02;1426036;91;21428;-88
2021/11/15 11:13:51;;;;;;;34.00;25.52;;;;;;;17.24;42.41;101410.55;1445497;89;21413;-89
2021/11/15 11:16:18;;;;;;;34.60;26.77;;;;;;;16.84;41.26;101414.03;1426067;91;22433;-89
2021/11/15 11:18:51;;;;;;;36.83;27.98;;;;;;;17.05;42.78;101409.02;1415245;91;21597;-88
2021/11/15 11:21:43;;;;;;;35.13;24.15;;;;;;;17.11;43.61;101413.70;1425252;89;21324;-89
2021/11/15 11:26:38;;;;;;;34.40;25.48;;;;;;;17.45;42.56;101419.90;1422298;91;21510;-89
2021/11/15 11:29:14;;;;;;;34.88;24.70;;;;;;;17.71;43.77;101423.20;1430234;91;22426;-89
2021/11/15 11:31:46;;;;;;;36.73;22.80;;;;;;;17.59;40.48;101417.37;1438004;91;21625;-88